Grand Island, NE (68803)

2:38 PM CDT on May 05, 2015 (GMT -0500)
10th and Custer | | Change Station
CLOSE
Current Station
Personal Weather Station
Location: Grand Island, NE
Elevation: 1865 ft
Nearby Weather Stations

Elev 1865 ft 40.93 °N, 98.37 °W | Updated 37 seconds ago

Partly Cloudy
Partly Cloudy
75.0 °F
Feels Like 78 °F
N
8.0
Wind Variable Wind from SSW
Gusts 16.0 mph

Today
High -- | Low -- °F
--% Chance of Precip.
Yesterday
High -- | Low -- °F
Precip. -- in
6:26 AM 8:34 PM
Full, 97% visible
Pressure 30.00 in
Visibility 10.0 miles
Clouds Few 3000 ft
Few 7500 ft
Heat Index 78 °F
Dew Point 58 °F
Humidity 55%
Rainfall 0.00 in
Snow Depth Not available.
UV 10 out of 12
Pollen 6.10 out of 12
Air Quality Not available.
Flu Activity Local Activity
METAR KGRI 051853Z 14013G19KT 10SM FEW030 FEW075 22/15 A3001 RMK AO2 SLP158 T02220150

More Conditions Fewer Conditions

Pressure 30.00 in
Visibility 10.0 miles
Clouds Few 3000 ft
Few 7500 ft
Heat Index 78 °F
Dew Point 58 °F
Humidity 55%
Rainfall 0.00 in
Snow Depth Not available.
UV 10 out of 12
Pollen 6.10 out of 12
Air Quality Not available.
Flu Activity Local Activity
METAR KGRI 051853Z 14013G19KT 10SM FEW030 FEW075 22/15 A3001 RMK AO2 SLP158 T02220150

More Conditions Fewer Conditions

10-Day Weather Forecast

Almanac

Astronomy

May. 05, 2015 Rise Set
Actual Time
Civil Twilight
Nautical Twilight
Astronomical Twilight
Moon
Length of Visible Light
Length of Day
Tomorrow will be .
, % of the Moon is Illuminated

Today's Extremes

State Highs State Lows

Community

WunderPhotos

Upload Photos

1,818,957 photos uploaded!

WunderBlogs® & News

Nearby

Air Quality

  Air Quality AQ Index Pollutant
Not available.

Snow Depth

Station Depth Elevation

Earthquake Activity

City Distance Mag. Time & Date
Minimum magnitude displayed is 2.5.

Coastal Water Temperatures

Place Temperature

Stations

Nearby Weather Stations

Station Location Temp. Windchill Dew Point Humidity Wind Precip. Elev Updated Type